sensor_id;sensor_type;location;lat;lon;timestamp;pressure;altitude;pressure_sealevel;temperature;humidity
50065;BME280;64524;47.848;-122.338;2022-11-04T00:00:22;101681.86;;;6.41;100.00
50065;BME280;64524;47.848;-122.338;2022-11-04T00:02:56;101679.91;;;6.40;100.00
50065;BME280;64524;47.848;-122.338;2022-11-04T00:05:24;101671.90;;;6.38;100.00
50065;BME280;64524;47.848;-122.338;2022-11-04T00:07:53;101664.92;;;6.36;100.00
50065;BME280;64524;47.848;-122.338;2022-11-04T00:10:41;101655.36;;;6.33;100.00
50065;BME280;64524;47.848;-122.338;2022-11-04T00:13:28;101644.73;;;6.31;100.00
50065;BME280;64524;47.848;-122.338;2022-11-04T00:16:00;101639.56;;;6.30;100.00
50065;BME280;64524;47.848;-122.338;2022-11-04T00:18:47;101626.30;;;6.30;100.00
50065;BME280;64524;47.848;-122.338;2022-11-04T00:21:16;101624.01;;;6.28;100.00
50065;BME280;64524;47.848;-122.338;2022-11-04T00:24:03;101621.23;;;6.28;100.00
50065;BME280;64524;47.848;-122.338;2022-11-04T00:26:51;101614.79;;;6.26;100.00
50065;BME280;64524;47.848;-122.338;2022-11-04T00:29:38;101607.75;;;6.23;100.00
50065;BME280;64524;47.848;-122.338;2022-11-04T00:32:06;101602.36;;;6.21;100.00
50065;BME280;64524;47.848;-122.338;2022-11-04T00:34:54;101602.53;;;6.21;100.00
50065;BME280;64524;47.848;-122.338;2022-11-04T00:37:23;101596.73;;;6.23;100.00
50065;BME280;64524;47.848;-122.338;2022-11-04T00:39:52;101586.64;;;6.24;100.00
50065;BME280;64524;47.848;-122.338;2022-11-04T00:42:20;101584.09;;;6.25;100.00
50065;BME280;64524;47.848;-122.338;2022-11-04T00:44:49;101575.09;;;6.23;100.00
50065;BME280;64524;47.848;-122.338;2022-11-04T00:47:18;101561.83;;;6.23;100.00
50065;BME280;64524;47.848;-122.338;2022-11-04T00:49:47;101559.02;;;6.21;100.00
50065;BME280;64524;47.848;-122.338;2022-11-04T00:52:16;101558.48;;;6.21;100.00
50065;BME280;64524;47.848;-122.338;2022-11-04T00:54:44;101560.75;;;6.22;100.00
50065;BME280;64524;47.848;-122.338;2022-11-04T00:57:13;101557.60;;;6.21;100.00
50065;BME280;64524;47.848;-122.338;2022-11-04T00:59:44;101557.11;;;6.21;100.00
50065;BME280;64524;47.848;-122.338;2022-11-04T01:02:14;101557.71;;;6.19;100.00
50065;BME280;64524;47.848;-122.338;2022-11-04T01:04:42;101562.31;;;6.18;100.00
50065;BME280;64524;47.848;-122.338;2022-11-04T01:07:11;101558.84;;;6.18;100.00
50065;BME280;64524;47.848;-122.338;2022-11-04T01:09:41;101560.54;;;6.17;100.00
50065;BME280;64524;47.848;-122.338;2022-11-04T01:12:09;101566.02;;;6.17;100.00
50065;BME280;64524;47.848;-122.338;2022-11-04T01:14:38;101568.57;;;6.16;100.00
50065;BME280;64524;47.848;-122.338;2022-11-04T01:17:07;101570.30;;;6.16;100.00
50065;BME280;64524;47.848;-122.338;2022-11-04T01:19:36;101573.39;;;6.16;100.00
50065;BME280;64524;47.848;-122.338;2022-11-04T01:22:05;101571.34;;;6.16;100.00
50065;BME280;64524;47.848;-122.338;2022-11-04T01:24:34;101566.52;;;6.16;100.00
50065;BME280;64524;47.848;-122.338;2022-11-04T01:27:02;101564.90;;;6.14;100.00
50065;BME280;64524;47.848;-122.338;2022-11-04T01:29:30;101562.17;;;6.15;100.00
50065;BME280;64524;47.848;-122.338;2022-11-04T01:31:59;101561.44;;;6.14;100.00
50065;BME280;64524;47.848;-122.338;2022-11-04T01:34:28;101558.36;;;6.14;100.00
50065;BME280;64524;47.848;-122.338;2022-11-04T01:36:57;101551.79;;;6.13;100.00
50065;BME280;64524;47.848;-122.338;2022-11-04T01:39:26;101549.52;;;6.12;100.00
50065;BME280;64524;47.848;-122.338;2022-11-04T01:41:55;101547.93;;;6.12;100.00
50065;BME280;64524;47.848;-122.338;2022-11-04T01:47:31;101539.17;;;6.12;100.00
50065;BME280;64524;47.848;-122.338;2022-11-04T01:50:07;101529.23;;;6.13;100.00
50065;BME280;64524;47.848;-122.338;2022-11-04T01:55:23;101514.23;;;6.12;100.00
50065;BME280;64524;47.848;-122.338;2022-11-04T01:57:56;101515.80;;;6.13;100.00
50065;BME280;64524;47.848;-122.338;2022-11-04T02:00:26;101509.70;;;6.15;100.00
50065;BME280;64524;47.848;-122.338;2022-11-04T02:03:03;101501.36;;;6.17;100.00
50065;BME280;64524;47.848;-122.338;2022-11-04T02:05:34;101500.98;;;6.20;100.00
50065;BME280;64524;47.848;-122.338;2022-11-04T02:08:04;101494.38;;;6.23;100.00
50065;BME280;64524;47.848;-122.338;2022-11-04T02:10:34;101491.94;;;6.26;100.00
50065;BME280;64524;47.848;-122.338;2022-11-04T02:13:04;101482.01;;;6.27;100.00
50065;BME280;64524;47.848;-122.338;2022-11-04T02:18:46;101474.97;;;6.32;100.00
50065;BME280;64524;47.848;-122.338;2022-11-04T02:35:21;101454.43;;;6.47;100.00
50065;BME280;64524;47.848;-122.338;2022-11-04T02:46:22;101426.48;;;6.50;100.00
50065;BME280;64524;47.848;-122.338;2022-11-04T02:49:02;101411.23;;;6.51;100.00
50065;BME280;64524;47.848;-122.338;2022-11-04T02:56:54;101402.66;;;6.53;100.00
50065;BME280;64524;47.848;-122.338;2022-11-04T03:02:07;101394.65;;;6.55;100.00
50065;BME280;64524;47.848;-122.338;2022-11-04T03:04:41;101389.35;;;6.56;100.00
50065;BME280;64524;47.848;-122.338;2022-11-04T03:07:16;101390.65;;;6.58;100.00
50065;BME280;64524;47.848;-122.338;2022-11-04T03:09:50;101397.74;;;6.59;100.00
50065;BME280;64524;47.848;-122.338;2022-11-04T03:12:26;101392.77;;;6.60;100.00
50065;BME280;64524;47.848;-122.338;2022-11-04T03:15:02;101382.95;;;6.60;100.00
50065;BME280;64524;47.848;-122.338;2022-11-04T03:17:48;101376.92;;;6.59;100.00
50065;BME280;64524;47.848;-122.338;2022-11-04T03:20:24;101367.48;;;6.60;100.00
50065;BME280;64524;47.848;-122.338;2022-11-04T03:22:55;101366.51;;;6.62;100.00
50065;BME280;64524;47.848;-122.338;2022-11-04T03:25:31;101370.65;;;6.62;100.00
50065;BME280;64524;47.848;-122.338;2022-11-04T03:30:49;101361.70;;;6.67;100.00
50065;BME280;64524;47.848;-122.338;2022-11-04T03:33:42;101357.39;;;6.71;100.00
50065;BME280;64524;47.848;-122.338;2022-11-04T03:36:13;101343.03;;;6.74;100.00
50065;BME280;64524;47.848;-122.338;2022-11-04T03:38:43;101339.86;;;6.77;100.00
50065;BME280;64524;47.848;-122.338;2022-11-04T03:41:19;101331.91;;;6.80;100.00
50065;BME280;64524;47.848;-122.338;2022-11-04T03:43:50;101323.91;;;6.83;100.00
50065;BME280;64524;47.848;-122.338;2022-11-04T03:46:19;101321.71;;;6.84;100.00
50065;BME280;64524;47.848;-122.338;2022-11-04T03:48:51;101305.25;;;6.86;100.00
50065;BME280;64524;47.848;-122.338;2022-11-04T03:51:23;101300.73;;;6.89;100.00
50065;BME280;64524;47.848;-122.338;2022-11-04T03:53:52;101300.88;;;6.94;100.00
50065;BME280;64524;47.848;-122.338;2022-11-04T03:59:30;101291.63;;;6.95;100.00
50065;BME280;64524;47.848;-122.338;2022-11-04T04:02:11;101276.27;;;6.94;100.00
50065;BME280;64524;47.848;-122.338;2022-11-04T04:04:55;101280.11;;;6.96;100.00
50065;BME280;64524;47.848;-122.338;2022-11-04T04:07:38;101274.55;;;6.95;100.00
50065;BME280;64524;47.848;-122.338;2022-11-04T04:10:35;101266.08;;;6.94;100.00
50065;BME280;64524;47.848;-122.338;2022-11-04T04:13:24;101272.34;;;6.95;100.00
50065;BME280;64524;47.848;-122.338;2022-11-04T04:19:19;101257.20;;;6.95;100.00
50065;BME280;64524;47.848;-122.338;2022-11-04T04:21:57;101257.54;;;6.95;100.00
50065;BME280;64524;47.848;-122.338;2022-11-04T04:24:34;101255.98;;;6.95;100.00
50065;BME280;64524;47.848;-122.338;2022-11-04T04:27:22;101244.48;;;6.96;100.00
50065;BME280;64524;47.848;-122.338;2022-11-04T04:30:12;101231.89;;;6.96;100.00
50065;BME280;64524;47.848;-122.338;2022-11-04T04:32:47;101229.77;;;6.95;100.00
50065;BME280;64524;47.848;-122.338;2022-11-04T04:35:26;101233.20;;;6.94;100.00
50065;BME280;64524;47.848;-122.338;2022-11-04T04:38:25;101222.36;;;6.94;100.00
50065;BME280;64524;47.848;-122.338;2022-11-04T04:44:03;101211.48;;;6.98;100.00
50065;BME280;64524;47.848;-122.338;2022-11-04T04:46:53;101199.17;;;6.96;100.00
50065;BME280;64524;47.848;-122.338;2022-11-04T04:49:24;101200.34;;;6.95;100.00
50065;BME280;64524;47.848;-122.338;2022-11-04T04:52:03;101203.17;;;6.92;100.00
50065;BME280;64524;47.848;-122.338;2022-11-04T04:54:34;101205.86;;;6.90;100.00
50065;BME280;64524;47.848;-122.338;2022-11-04T04:57:03;101202.51;;;6.88;100.00
50065;BME280;64524;47.848;-122.338;2022-11-04T04:59:31;101201.58;;;6.86;100.00
50065;BME280;64524;47.848;-122.338;2022-11-04T05:02:00;101198.62;;;6.85;100.00
50065;BME280;64524;47.848;-122.338;2022-11-04T05:04:29;101195.73;;;6.86;100.00
50065;BME280;64524;47.848;-122.338;2022-11-04T05:06:58;101184.66;;;6.85;100.00
50065;BME280;64524;47.848;-122.338;2022-11-04T05:09:27;101181.70;;;6.84;100.00
50065;BME280;64524;47.848;-122.338;2022-11-04T05:11:56;101179.08;;;6.83;100.00
50065;BME280;64524;47.848;-122.338;2022-11-04T05:14:24;101159.95;;;6.82;100.00
50065;BME280;64524;47.848;-122.338;2022-11-04T05:16:53;101141.85;;;6.82;100.00
50065;BME280;64524;47.848;-122.338;2022-11-04T05:19:22;101138.91;;;6.81;100.00
50065;BME280;64524;47.848;-122.338;2022-11-04T05:21:51;101137.55;;;6.82;100.00
50065;BME280;64524;47.848;-122.338;2022-11-04T05:24:20;101133.08;;;6.81;100.00
50065;BME280;64524;47.848;-122.338;2022-11-04T05:26:49;101137.52;;;6.81;100.00
50065;BME280;64524;47.848;-122.338;2022-11-04T05:29:18;101130.30;;;6.81;100.00
50065;BME280;64524;47.848;-122.338;2022-11-04T05:31:47;101120.15;;;6.81;100.00
50065;BME280;64524;47.848;-122.338;2022-11-04T05:34:16;101121.25;;;6.84;100.00
50065;BME280;64524;47.848;-122.338;2022-11-04T05:36:44;101119.05;;;6.85;100.00
50065;BME280;64524;47.848;-122.338;2022-11-04T05:39:13;101115.67;;;6.86;100.00
50065;BME280;64524;47.848;-122.338;2022-11-04T05:41:41;101116.20;;;6.87;100.00
50065;BME280;64524;47.848;-122.338;2022-11-04T05:44:10;101096.56;;;6.87;100.00
50065;BME280;64524;47.848;-122.338;2022-11-04T05:46:39;101089.48;;;6.86;100.00
50065;BME280;64524;47.848;-122.338;2022-11-04T05:49:08;101096.69;;;6.85;100.00
50065;BME280;64524;47.848;-122.338;2022-11-04T05:51:37;101095.46;;;6.85;100.00
50065;BME280;64524;47.848;-122.338;2022-11-04T05:54:06;101097.17;;;6.85;100.00
50065;BME280;64524;47.848;-122.338;2022-11-04T05:56:36;101085.48;;;6.85;100.00
50065;BME280;64524;47.848;-122.338;2022-11-04T05:59:04;101072.09;;;6.86;100.00
50065;BME280;64524;47.848;-122.338;2022-11-04T06:01:35;101060.55;;;6.87;100.00
50065;BME280;64524;47.848;-122.338;2022-11-04T06:04:05;101057.11;;;6.87;100.00
50065;BME280;64524;47.848;-122.338;2022-11-04T06:06:35;101062.48;;;6.87;100.00
50065;BME280;64524;47.848;-122.338;2022-11-04T06:09:06;101058.02;;;6.88;100.00
50065;BME280;64524;47.848;-122.338;2022-11-04T06:11:35;101057.38;;;6.89;100.00
50065;BME280;64524;47.848;-122.338;2022-11-04T06:14:04;101057.39;;;6.89;100.00
50065;BME280;64524;47.848;-122.338;2022-11-04T06:16:33;101062.58;;;6.90;100.00
50065;BME280;64524;47.848;-122.338;2022-11-04T06:19:02;101059.86;;;6.91;100.00
50065;BME280;64524;47.848;-122.338;2022-11-04T06:21:37;101051.94;;;6.92;100.00
50065;BME280;64524;47.848;-122.338;2022-11-04T06:24:07;101034.41;;;6.92;100.00
50065;BME280;64524;47.848;-122.338;2022-11-04T06:26:35;101019.11;;;6.94;100.00
50065;BME280;64524;47.848;-122.338;2022-11-04T06:29:07;101016.50;;;6.93;100.00
50065;BME280;64524;47.848;-122.338;2022-11-04T06:31:39;101021.70;;;6.94;100.00
50065;BME280;64524;47.848;-122.338;2022-11-04T06:34:09;101020.54;;;6.95;100.00
50065;BME280;64524;47.848;-122.338;2022-11-04T06:36:38;101021.63;;;6.97;100.00
50065;BME280;64524;47.848;-122.338;2022-11-04T06:39:07;101020.10;;;6.98;100.00
50065;BME280;64524;47.848;-122.338;2022-11-04T06:41:38;101009.07;;;6.97;100.00
50065;BME280;64524;47.848;-122.338;2022-11-04T06:44:09;101007.82;;;6.97;100.00
50065;BME280;64524;47.848;-122.338;2022-11-04T06:46:40;101004.27;;;6.98;100.00
50065;BME280;64524;47.848;-122.338;2022-11-04T06:49:13;101001.73;;;7.00;100.00
50065;BME280;64524;47.848;-122.338;2022-11-04T06:51:41;100993.04;;;7.03;100.00
50065;BME280;64524;47.848;-122.338;2022-11-04T06:54:11;100995.02;;;7.05;100.00
50065;BME280;64524;47.848;-122.338;2022-11-04T06:56:39;100985.75;;;7.07;100.00
50065;BME280;64524;47.848;-122.338;2022-11-04T06:59:17;100973.30;;;7.11;100.00
50065;BME280;64524;47.848;-122.338;2022-11-04T07:01:48;100973.22;;;7.14;100.00
50065;BME280;64524;47.848;-122.338;2022-11-04T07:04:17;100968.95;;;7.16;100.00
50065;BME280;64524;47.848;-122.338;2022-11-04T07:06:46;100970.35;;;7.17;100.00
50065;BME280;64524;47.848;-122.338;2022-11-04T07:09:15;100971.73;;;7.16;100.00
50065;BME280;64524;47.848;-122.338;2022-11-04T07:11:45;100969.38;;;7.18;100.00
50065;BME280;64524;47.848;-122.338;2022-11-04T07:14:13;100973.21;;;7.20;100.00
50065;BME280;64524;47.848;-122.338;2022-11-04T07:16:42;100971.36;;;7.21;100.00
50065;BME280;64524;47.848;-122.338;2022-11-04T07:19:11;100962.92;;;7.21;100.00
50065;BME280;64524;47.848;-122.338;2022-11-04T07:21:39;100958.27;;;7.21;100.00
50065;BME280;64524;47.848;-122.338;2022-11-04T07:24:08;100952.88;;;7.19;100.00
50065;BME280;64524;47.848;-122.338;2022-11-04T07:26:37;100950.81;;;7.19;100.00
50065;BME280;64524;47.848;-122.338;2022-11-04T07:29:06;100950.77;;;7.18;100.00
50065;BME280;64524;47.848;-122.338;2022-11-04T07:31:34;100945.77;;;7.18;100.00
50065;BME280;64524;47.848;-122.338;2022-11-04T07:34:03;100942.92;;;7.15;100.00
50065;BME280;64524;47.848;-122.338;2022-11-04T07:36:32;100929.57;;;7.12;100.00
50065;BME280;64524;47.848;-122.338;2022-11-04T07:39:01;100933.46;;;7.09;100.00
50065;BME280;64524;47.848;-122.338;2022-11-04T07:41:30;100929.95;;;7.06;100.00
50065;BME280;64524;47.848;-122.338;2022-11-04T07:43:58;100925.64;;;7.06;100.00
50065;BME280;64524;47.848;-122.338;2022-11-04T07:46:28;100922.49;;;7.05;100.00
50065;BME280;64524;47.848;-122.338;2022-11-04T07:48:57;100917.95;;;7.03;100.00
50065;BME280;64524;47.848;-122.338;2022-11-04T07:51:26;100918.58;;;7.01;100.00
50065;BME280;64524;47.848;-122.338;2022-11-04T07:53:55;100916.64;;;7.00;100.00
50065;BME280;64524;47.848;-122.338;2022-11-04T07:56:25;100912.48;;;6.99;100.00
50065;BME280;64524;47.848;-122.338;2022-11-04T07:58:54;100909.37;;;6.98;100.00
50065;BME280;64524;47.848;-122.338;2022-11-04T08:01:23;100908.48;;;6.98;100.00
50065;BME280;64524;47.848;-122.338;2022-11-04T08:03:52;100908.88;;;6.99;100.00
50065;BME280;64524;47.848;-122.338;2022-11-04T08:06:21;100904.58;;;7.00;100.00
50065;BME280;64524;47.848;-122.338;2022-11-04T08:08:50;100897.36;;;7.00;100.00
50065;BME280;64524;47.848;-122.338;2022-11-04T08:11:22;100891.86;;;7.00;100.00
50065;BME280;64524;47.848;-122.338;2022-11-04T08:13:55;100879.85;;;7.02;100.00
50065;BME280;64524;47.848;-122.338;2022-11-04T08:16:25;100877.16;;;7.04;100.00
50065;BME280;64524;47.848;-122.338;2022-11-04T08:19:00;100869.79;;;7.05;100.00
50065;BME280;64524;47.848;-122.338;2022-11-04T08:21:31;100863.12;;;7.07;100.00
50065;BME280;64524;47.848;-122.338;2022-11-04T08:23:59;100857.77;;;7.07;100.00
50065;BME280;64524;47.848;-122.338;2022-11-04T08:26:30;100865.04;;;7.08;100.00
50065;BME280;64524;47.848;-122.338;2022-11-04T08:28:59;100871.42;;;7.09;100.00
50065;BME280;64524;47.848;-122.338;2022-11-04T08:31:30;100871.73;;;7.07;100.00
50065;BME280;64524;47.848;-122.338;2022-11-04T08:34:00;100873.73;;;7.04;100.00
50065;BME280;64524;47.848;-122.338;2022-11-04T08:36:32;100875.96;;;7.05;100.00
50065;BME280;64524;47.848;-122.338;2022-11-04T08:39:04;100877.17;;;7.05;100.00
50065;BME280;64524;47.848;-122.338;2022-11-04T08:41:42;100865.76;;;7.03;100.00
50065;BME280;64524;47.848;-122.338;2022-11-04T08:44:12;100861.56;;;7.01;100.00
50065;BME280;64524;47.848;-122.338;2022-11-04T08:46:43;100861.23;;;7.01;100.00
50065;BME280;64524;47.848;-122.338;2022-11-04T08:49:12;100855.35;;;7.01;100.00
50065;BME280;64524;47.848;-122.338;2022-11-04T08:51:47;100852.11;;;7.02;100.00
50065;BME280;64524;47.848;-122.338;2022-11-04T08:54:23;100847.84;;;7.03;100.00
50065;BME280;64524;47.848;-122.338;2022-11-04T08:56:52;100841.33;;;7.04;100.00
50065;BME280;64524;47.848;-122.338;2022-11-04T08:59:21;100840.36;;;7.07;100.00
50065;BME280;64524;47.848;-122.338;2022-11-04T09:01:52;100830.39;;;7.07;100.00
50065;BME280;64524;47.848;-122.338;2022-11-04T09:04:21;100829.77;;;7.09;100.00
50065;BME280;64524;47.848;-122.338;2022-11-04T09:06:51;100823.27;;;7.11;100.00
50065;BME280;64524;47.848;-122.338;2022-11-04T09:09:19;100822.98;;;7.14;100.00
50065;BME280;64524;47.848;-122.338;2022-11-04T09:11:49;100813.05;;;7.16;100.00
50065;BME280;64524;47.848;-122.338;2022-11-04T09:14:17;100812.59;;;7.17;100.00
50065;BME280;64524;47.848;-122.338;2022-11-04T09:16:48;100801.06;;;7.18;100.00
50065;BME280;64524;47.848;-122.338;2022-11-04T09:19:16;100802.30;;;7.19;100.00
50065;BME280;64524;47.848;-122.338;2022-11-04T09:21:45;100795.95;;;7.20;100.00
50065;BME280;64524;47.848;-122.338;2022-11-04T09:24:14;100795.07;;;7.20;100.00
50065;BME280;64524;47.848;-122.338;2022-11-04T09:26:42;100788.52;;;7.20;100.00
50065;BME280;64524;47.848;-122.338;2022-11-04T09:29:11;100787.38;;;7.21;100.00
50065;BME280;64524;47.848;-122.338;2022-11-04T09:31:40;100785.20;;;7.24;100.00
50065;BME280;64524;47.848;-122.338;2022-11-04T09:34:10;100774.05;;;7.27;100.00
50065;BME280;64524;47.848;-122.338;2022-11-04T09:36:38;100767.80;;;7.30;100.00
50065;BME280;64524;47.848;-122.338;2022-11-04T09:39:07;100765.66;;;7.35;100.00
50065;BME280;64524;47.848;-122.338;2022-11-04T09:47:46;100750.61;;;7.46;100.00
50065;BME280;64524;47.848;-122.338;2022-11-04T09:50:43;100747.04;;;7.48;100.00
50065;BME280;64524;47.848;-122.338;2022-11-04T09:55:57;100736.97;;;7.52;100.00
50065;BME280;64524;47.848;-122.338;2022-11-04T09:58:31;100731.80;;;7.53;100.00
50065;BME280;64524;47.848;-122.338;2022-11-04T10:01:19;100721.81;;;7.53;100.00
50065;BME280;64524;47.848;-122.338;2022-11-04T10:07:06;100720.20;;;7.58;100.00
50065;BME280;64524;47.848;-122.338;2022-11-04T10:20:51;100684.11;;;7.62;100.00
50065;BME280;64524;47.848;-122.338;2022-11-04T10:26:28;100666.55;;;7.64;100.00
50065;BME280;64524;47.848;-122.338;2022-11-04T10:29:12;100657.79;;;7.64;100.00
50065;BME280;64524;47.848;-122.338;2022-11-04T10:31:44;100652.48;;;7.67;100.00
50065;BME280;64524;47.848;-122.338;2022-11-04T10:34:26;100644.45;;;7.69;100.00
50065;BME280;64524;47.848;-122.338;2022-11-04T10:36:57;100642.58;;;7.71;100.00
50065;BME280;64524;47.848;-122.338;2022-11-04T10:39:29;100640.06;;;7.74;100.00
50065;BME280;64524;47.848;-122.338;2022-11-04T10:41:58;100637.55;;;7.77;100.00
50065;BME280;64524;47.848;-122.338;2022-11-04T10:44:32;100628.14;;;7.80;100.00
50065;BME280;64524;47.848;-122.338;2022-11-04T10:50:03;100617.24;;;7.87;100.00
50065;BME280;64524;47.848;-122.338;2022-11-04T10:53:18;100615.92;;;7.90;100.00
50065;BME280;64524;47.848;-122.338;2022-11-04T10:58:31;100601.52;;;7.94;100.00
50065;BME280;64524;47.848;-122.338;2022-11-04T11:01:28;100599.20;;;7.99;100.00
50065;BME280;64524;47.848;-122.338;2022-11-04T11:03:58;100595.48;;;8.02;100.00
50065;BME280;64524;47.848;-122.338;2022-11-04T11:09:00;100594.20;;;8.08;100.00
50065;BME280;64524;47.848;-122.338;2022-11-04T11:14:30;100584.30;;;8.12;100.00
50065;BME280;64524;47.848;-122.338;2022-11-04T11:19:59;100573.18;;;8.17;100.00
50065;BME280;64524;47.848;-122.338;2022-11-04T11:22:40;100569.90;;;8.17;100.00
50065;BME280;64524;47.848;-122.338;2022-11-04T11:25:31;100569.39;;;8.17;100.00
50065;BME280;64524;47.848;-122.338;2022-11-04T11:28:02;100561.62;;;8.17;100.00
50065;BME280;64524;47.848;-122.338;2022-11-04T11:33:17;100552.68;;;8.19;100.00
50065;BME280;64524;47.848;-122.338;2022-11-04T11:35:52;100548.71;;;8.20;100.00
50065;BME280;64524;47.848;-122.338;2022-11-04T11:38:24;100541.66;;;8.21;100.00
50065;BME280;64524;47.848;-122.338;2022-11-04T11:41:13;100537.71;;;8.21;100.00
50065;BME280;64524;47.848;-122.338;2022-11-04T11:43:53;100537.92;;;8.23;100.00
50065;BME280;64524;47.848;-122.338;2022-11-04T11:46:25;100525.17;;;8.24;100.00
50065;BME280;64524;47.848;-122.338;2022-11-04T11:48:57;100515.49;;;8.24;100.00
50065;BME280;64524;47.848;-122.338;2022-11-04T11:56:59;100498.45;;;8.26;100.00
50065;BME280;64524;47.848;-122.338;2022-11-04T11:59:50;100485.36;;;8.27;100.00
50065;BME280;64524;47.848;-122.338;2022-11-04T12:03:21;100484.70;;;8.29;100.00
50065;BME280;64524;47.848;-122.338;2022-11-04T12:08:59;100479.23;;;8.32;100.00
50065;BME280;64524;47.848;-122.338;2022-11-04T12:12:58;100482.20;;;8.34;100.00
50065;BME280;64524;47.848;-122.338;2022-11-04T12:18:17;100479.35;;;8.39;100.00
50065;BME280;64524;47.848;-122.338;2022-11-04T12:37:38;100437.34;;;8.66;100.00
50065;BME280;64524;47.848;-122.338;2022-11-04T12:51:51;100409.58;;;8.68;100.00
50065;BME280;64524;47.848;-122.338;2022-11-04T12:58:36;100387.48;;;8.69;100.00
50065;BME280;64524;47.848;-122.338;2022-11-04T13:00:34;100381.63;;;8.70;100.00
50065;BME280;64524;47.848;-122.338;2022-11-04T13:03:13;100379.90;;;8.71;100.00
50065;BME280;64524;47.848;-122.338;2022-11-04T13:11:35;100382.38;;;8.75;100.00
50065;BME280;64524;47.848;-122.338;2022-11-04T13:14:19;100379.86;;;8.79;100.00
50065;BME280;64524;47.848;-122.338;2022-11-04T13:17:08;100352.79;;;8.84;100.00
50065;BME280;64524;47.848;-122.338;2022-11-04T13:19:52;100370.51;;;8.90;100.00
50065;BME280;64524;47.848;-122.338;2022-11-04T13:27:46;100334.77;;;9.05;100.00
50065;BME280;64524;47.848;-122.338;2022-11-04T13:38:18;100328.37;;;9.21;100.00
50065;BME280;64524;47.848;-122.338;2022-11-04T13:40:55;100323.91;;;9.24;100.00
50065;BME280;64524;47.848;-122.338;2022-11-04T13:43:36;100337.77;;;9.27;100.00
50065;BME280;64524;47.848;-122.338;2022-11-04T13:52:08;100323.69;;;9.35;100.00
50065;BME280;64524;47.848;-122.338;2022-11-04T13:54:40;100305.55;;;9.37;100.00
50065;BME280;64524;47.848;-122.338;2022-11-04T13:57:18;100292.80;;;9.40;100.00
50065;BME280;64524;47.848;-122.338;2022-11-04T14:06:04;100288.55;;;9.48;100.00
50065;BME280;64524;47.848;-122.338;2022-11-04T14:08:34;100284.95;;;9.51;100.00
50065;BME280;64524;47.848;-122.338;2022-11-04T14:11:08;100283.93;;;9.53;100.00
50065;BME280;64524;47.848;-122.338;2022-11-04T14:13:42;100278.59;;;9.55;100.00
50065;BME280;64524;47.848;-122.338;2022-11-04T14:16:40;100268.08;;;9.57;100.00
50065;BME280;64524;47.848;-122.338;2022-11-04T14:22:16;100271.39;;;9.62;100.00
50065;BME280;64524;47.848;-122.338;2022-11-04T14:24:54;100277.27;;;9.63;100.00
50065;BME280;64524;47.848;-122.338;2022-11-04T14:27:37;100278.85;;;9.65;100.00
50065;BME280;64524;47.848;-122.338;2022-11-04T14:32:58;100277.14;;;9.69;100.00
50065;BME280;64524;47.848;-122.338;2022-11-04T14:35:29;100276.82;;;9.72;100.00
50065;BME280;64524;47.848;-122.338;2022-11-04T14:38:04;100275.83;;;9.75;100.00
50065;BME280;64524;47.848;-122.338;2022-11-04T14:40:51;100273.76;;;9.77;100.00
50065;BME280;64524;47.848;-122.338;2022-11-04T14:43:41;100266.52;;;9.81;100.00
50065;BME280;64524;47.848;-122.338;2022-11-04T14:46:18;100258.42;;;9.84;100.00
50065;BME280;64524;47.848;-122.338;2022-11-04T14:48:51;100258.80;;;9.87;100.00
50065;BME280;64524;47.848;-122.338;2022-11-04T14:51:28;100260.19;;;9.90;100.00
50065;BME280;64524;47.848;-122.338;2022-11-04T14:54:29;100263.50;;;9.93;100.00
50065;BME280;64524;47.848;-122.338;2022-11-04T14:57:16;100247.45;;;9.96;100.00
50065;BME280;64524;47.848;-122.338;2022-11-04T14:59:46;100246.23;;;9.98;100.00
50065;BME280;64524;47.848;-122.338;2022-11-04T15:02:23;100240.53;;;9.99;100.00
50065;BME280;64524;47.848;-122.338;2022-11-04T15:04:56;100238.98;;;9.99;100.00
50065;BME280;64524;47.848;-122.338;2022-11-04T15:07:35;100243.48;;;10.00;100.00
50065;BME280;64524;47.848;-122.338;2022-11-04T15:10:20;100241.92;;;10.01;100.00
50065;BME280;64524;47.848;-122.338;2022-11-04T15:12:52;100237.61;;;10.03;100.00
50065;BME280;64524;47.848;-122.338;2022-11-04T15:15:27;100246.09;;;10.03;100.00
50065;BME280;64524;47.848;-122.338;2022-11-04T15:18:12;100246.27;;;10.05;100.00
50065;BME280;64524;47.848;-122.338;2022-11-04T15:20:50;100246.80;;;10.05;100.00
50065;BME280;64524;47.848;-122.338;2022-11-04T15:23:28;100244.40;;;10.07;100.00
50065;BME280;64524;47.848;-122.338;2022-11-04T15:25:58;100247.52;;;10.10;100.00
50065;BME280;64524;47.848;-122.338;2022-11-04T15:28:45;100254.98;;;10.12;100.00
50065;BME280;64524;47.848;-122.338;2022-11-04T15:31:18;100249.64;;;10.16;100.00
50065;BME280;64524;47.848;-122.338;2022-11-04T15:33:57;100248.79;;;10.19;100.00
50065;BME280;64524;47.848;-122.338;2022-11-04T15:36:38;100244.14;;;10.23;100.00
50065;BME280;64524;47.848;-122.338;2022-11-04T15:39:15;100248.66;;;10.25;100.00
50065;BME280;64524;47.848;-122.338;2022-11-04T15:41:46;100246.44;;;10.29;100.00
50065;BME280;64524;47.848;-122.338;2022-11-04T15:44:35;100240.59;;;10.32;100.00
50065;BME280;64524;47.848;-122.338;2022-11-04T15:49:48;100229.36;;;10.38;100.00
50065;BME280;64524;47.848;-122.338;2022-11-04T15:52:21;100231.80;;;10.41;100.00